createdAt,value
2022-11-06T00:03:28.808Z,4.2
2022-11-06T00:08:41.251Z,4.8
2022-11-06T00:13:52.748Z,4.4
2022-11-06T00:19:02.923Z,4.2
2022-11-06T00:24:14.329Z,3.9
2022-11-06T00:29:26.358Z,3.9
2022-11-06T00:34:38.539Z,3.5
2022-11-06T00:39:49.821Z,3.5
2022-11-06T00:44:59.288Z,3.5
2022-11-06T00:50:11.218Z,3.6
2022-11-06T00:55:21.912Z,3.7
2022-11-06T01:00:30.877Z,3.7
2022-11-06T01:11:05.903Z,3.8
2022-11-06T01:21:34.924Z,3.8
2022-11-06T01:27:27.856Z,3.8
2022-11-06T01:31:59.672Z,3.6
2022-11-06T01:37:15.385Z,3.6
2022-11-06T01:42:22.171Z,3.4
2022-11-06T01:47:37.650Z,3.4
2022-11-06T01:52:53.462Z,3.4
2022-11-06T01:58:09.652Z,3.4
2022-11-06T02:03:21.663Z,3.2
2022-11-06T02:08:37.223Z,3.2
2022-11-06T02:13:48.081Z,2.9
2022-11-06T02:19:04.266Z,2.9
2022-11-06T02:24:15.613Z,2.7
2022-11-06T02:29:32.298Z,2.7
2022-11-06T02:34:48.284Z,2.7
2022-11-06T02:40:04.503Z,2.7
2022-11-06T02:45:16.391Z,2.8
2022-11-06T02:50:34.207Z,2.8
2022-11-06T02:55:49.977Z,2.8
2022-11-06T03:01:01.681Z,2.8
2022-11-06T03:06:16.978Z,2.8
2022-11-06T03:11:31.129Z,2.8
2022-11-06T03:16:46.934Z,2.8
2022-11-06T03:21:59.510Z,2.8
2022-11-06T03:27:11.011Z,2.8
2022-11-06T03:32:23.139Z,2.8
2022-11-06T03:37:38.673Z,2.8
2022-11-06T03:42:55.783Z,2.8
2022-11-06T03:48:06.121Z,2.7
2022-11-06T03:53:22.306Z,2.7
2022-11-06T03:58:31.837Z,2.6
2022-11-06T04:03:47.303Z,2.6
2022-11-06T04:09:02.065Z,2.6
2022-11-06T04:14:12.193Z,2.8
2022-11-06T04:24:49.674Z,2.8
2022-11-06T04:30:02.294Z,2.8
2022-11-06T04:35:14.787Z,2.8
2022-11-06T04:40:24.918Z,2.6
2022-11-06T04:45:39.787Z,2.6
2022-11-06T04:50:54.118Z,2.4
2022-11-06T04:56:03.376Z,2.4
2022-11-06T05:01:18.973Z,2.4
2022-11-06T05:06:30.830Z,1.7
2022-11-06T05:11:46.555Z,1.7
2022-11-06T05:16:58.379Z,1.8
2022-11-06T05:22:14.934Z,1.8
2022-11-06T05:27:31.895Z,1.8
2022-11-06T05:32:41.109Z,2
2022-11-06T05:37:53.290Z,1.8
2022-11-06T05:43:08.487Z,1.8
2022-11-06T05:48:24.651Z,1.8
2022-11-06T05:53:37.548Z,1.8
2022-11-06T05:58:50.233Z,1.5
2022-11-06T06:04:04.596Z,1.5
2022-11-06T06:09:15.352Z,1.4
2022-11-06T06:14:26.264Z,1.6
2022-11-06T06:19:39.892Z,1.6
2022-11-06T06:24:55.542Z,1.6
2022-11-06T06:30:09.773Z,1.6
2022-11-06T06:35:21.592Z,1.5
2022-11-06T06:40:33.384Z,1.5
2022-11-06T06:45:46.309Z,1.6
2022-11-06T06:51:01.740Z,1.6
2022-11-06T06:56:17.673Z,1.6
2022-11-06T07:01:34.485Z,1.6
2022-11-06T07:06:46.151Z,1.6
2022-11-06T07:12:02.011Z,1.6
2022-11-06T07:17:18.618Z,1.6
2022-11-06T07:22:38.089Z,2.1
2022-11-06T07:27:46.940Z,2.1
2022-11-06T07:32:58.756Z,2.2
2022-11-06T07:38:12.529Z,2.3
2022-11-06T07:43:27.134Z,2.3
2022-11-06T07:48:37.742Z,2.4
2022-11-06T07:53:49.237Z,2.3
2022-11-06T07:59:00.922Z,2.3
2022-11-06T08:04:12.446Z,2.2
2022-11-06T08:09:24.400Z,2.3
2022-11-06T08:14:41.831Z,2.4
2022-11-06T08:19:52.671Z,2.4
2022-11-06T08:25:05.655Z,3
2022-11-06T08:30:17.339Z,3.2
2022-11-06T08:35:27.250Z,3.3
2022-11-06T08:40:36.441Z,3.3
2022-11-06T08:45:57.874Z,3.5
2022-11-06T08:51:00.829Z,3.5
2022-11-06T08:56:11.621Z,3.7
2022-11-06T09:01:23.698Z,3.7
2022-11-06T09:06:34.938Z,3.8
2022-11-06T09:22:30.981Z,5
2022-11-06T09:27:43.789Z,5.5
2022-11-06T09:32:56.593Z,5.7
2022-11-06T09:38:12.612Z,6.2
2022-11-06T09:44:06.497Z,6.4
2022-11-06T09:48:32.916Z,6.6
2022-11-06T09:53:44.996Z,6.7
2022-11-06T09:58:51.374Z,6.9
2022-11-06T10:04:06.988Z,7.9
2022-11-06T10:09:18.882Z,9.2
2022-11-06T10:14:33.142Z,9.7
2022-11-06T10:25:08.916Z,9.7
2022-11-06T10:30:23.414Z,11.1
2022-11-06T10:46:13.265Z,9.4
2022-11-06T10:51:29.940Z,9.4
2022-11-06T10:56:50.321Z,9.4
2022-11-06T11:02:13.665Z,11.3
2022-11-06T11:12:45.512Z,12.5
2022-11-06T11:18:14.937Z,12.5
2022-11-06T11:23:27.294Z,12.5
2022-11-06T11:28:40.813Z,14.1
2022-11-06T11:44:37.231Z,14.1
2022-11-06T11:49:51.975Z,12.8
2022-11-06T11:55:03.263Z,13.4
2022-11-06T12:00:11.409Z,13.4
2022-11-06T12:10:47.079Z,13.2
2022-11-06T12:21:20.122Z,13.6
2022-11-06T12:26:34.369Z,14.9
2022-11-06T12:37:06.992Z,15.9
2022-11-06T12:42:18.558Z,15.3
2022-11-06T12:47:30.774Z,15.9
2022-11-06T12:52:41.753Z,15.9
2022-11-06T12:57:53.043Z,16.3
2022-11-06T13:02:57.657Z,15.1
2022-11-06T13:08:14.330Z,16.6
2022-11-06T13:13:26.514Z,17.4
2022-11-06T13:18:38.386Z,17.6
2022-11-06T13:23:55.194Z,19.2
2022-11-06T13:29:08.231Z,18.9
2022-11-06T13:34:19.157Z,17.5
2022-11-06T13:39:27.775Z,16.1
2022-11-06T13:50:05.454Z,16.8
2022-11-06T14:05:58.179Z,14.6
2022-11-06T14:11:14.938Z,13.2
2022-11-06T14:21:44.461Z,13.2
2022-11-06T14:27:00.121Z,13.2
2022-11-06T14:32:10.496Z,12.4
2022-11-06T14:37:22.111Z,12.4
2022-11-06T14:42:34.341Z,11.2
2022-11-06T14:47:50.358Z,11.2
2022-11-06T14:53:06.629Z,11.2
2022-11-06T15:03:38.800Z,10.2
2022-11-06T15:14:21.204Z,10.2
2022-11-06T15:19:30.896Z,9.7
2022-11-06T15:24:47.338Z,9.5
2022-11-06T15:35:16.617Z,9.3
2022-11-06T15:51:13.201Z,8.9
2022-11-06T15:56:24.317Z,8.7
2022-11-06T16:01:36.317Z,8.6
2022-11-06T16:06:50.934Z,8.6
2022-11-06T16:12:05.013Z,8.6
2022-11-06T16:17:21.022Z,8.6
2022-11-06T16:22:33.053Z,8.4
2022-11-06T16:33:05.395Z,8.1
2022-11-06T16:43:39.165Z,7.8
2022-11-06T16:48:50.527Z,7.8
2022-11-06T16:54:01.324Z,7.7
2022-11-06T16:59:13.671Z,7.7
2022-11-06T17:04:26.536Z,7.6
2022-11-06T17:09:41.659Z,7.6
2022-11-06T17:14:54.078Z,7.5
2022-11-06T17:20:17.472Z,7.5
2022-11-06T17:25:22.317Z,7.5
2022-11-06T17:30:32.526Z,7.3
2022-11-06T17:35:48.593Z,7.3
2022-11-06T17:46:22.287Z,7.4
2022-11-06T17:51:34.406Z,7.3
2022-11-06T17:56:46.085Z,7.3
2022-11-06T18:07:23.694Z,7.3
2022-11-06T18:12:39.210Z,7.3
2022-11-06T18:17:52.119Z,7.3
2022-11-06T18:23:07.148Z,7.3
2022-11-06T18:33:42.274Z,7.3
2022-11-06T18:38:53.800Z,7.5
2022-11-06T18:44:06.301Z,7.3
2022-11-06T18:49:16.918Z,7.3
2022-11-06T18:54:32.920Z,7.3
2022-11-06T18:59:48.188Z,7.3
2022-11-06T19:10:19.983Z,7.3
2022-11-06T19:31:36.901Z,7.5
2022-11-06T19:42:11.573Z,7.6
2022-11-06T19:47:23.405Z,7.5
2022-11-06T20:03:18.680Z,7.4
2022-11-06T20:08:29.621Z,7.4
2022-11-06T20:19:02.111Z,8.2
2022-11-06T20:29:35.766Z,8.3
2022-11-06T20:34:45.717Z,8.3
2022-11-06T20:39:57.893Z,8.5
2022-11-06T21:01:13.636Z,9
2022-11-06T21:11:46.800Z,9.1
2022-11-06T21:16:58.723Z,8.9
2022-11-06T21:38:16.495Z,9.3
2022-11-06T21:59:31.734Z,9.4
2022-11-06T22:04:43.243Z,9.6
2022-11-06T22:20:37.124Z,9.6
2022-11-06T22:41:53.304Z,9.7
2022-11-06T23:03:11.576Z,10
2022-11-06T23:24:27.855Z,10
2022-11-06T23:45:43.631Z,10
2022-11-06T23:56:16.841Z,9.7
